Time;durP1;ratioP1;P1;durP2;ratioP2;P2;SDS_P1;SDS_P2;PMS_P1;PMS_P2;Temp;Humidity;BMP_temperature;BMP_pressure;BME280_temperature;BME280_humidity;BME280_pressure;Samples;Min_cycle;Max_cycle;Signal;HPM_P1;HPM_P2
2021/06/24 00:01:34;;;;;;;12.55;6.65;;;21.00;56.00;;;;;;4897378;29;20636;-85
2021/06/24 00:03:59;;;;;;;12.07;6.20;;;21.00;55.80;;;;;;4902367;29;20091;-85
2021/06/24 00:06:25;;;;;;;11.65;6.78;;;21.00;55.70;;;;;;4905642;29;20032;-85
2021/06/24 00:08:51;;;;;;;11.75;6.82;;;20.90;55.60;;;;;;4901427;29;20040;-85
2021/06/24 00:11:16;;;;;;;11.55;7.38;;;20.90;55.80;;;;;;4898841;29;20025;-86
2021/06/24 00:13:42;;;;;;;12.73;8.13;;;20.80;55.90;;;;;;4898533;29;20040;-86
2021/06/24 00:16:08;;;;;;;12.48;7.63;;;20.80;56.10;;;;;;4901370;29;20085;-86
2021/06/24 00:18:34;;;;;;;12.13;7.85;;;20.80;56.80;;;;;;4901134;29;20105;-86
2021/06/24 00:21:00;;;;;;;12.75;7.93;;;20.80;56.30;;;;;;4901299;29;20032;-86
2021/06/24 00:23:25;;;;;;;13.30;8.48;;;20.70;56.40;;;;;;4901297;29;20112;-85
2021/06/24 00:25:51;;;;;;;15.00;8.75;;;20.70;56.50;;;;;;4901524;29;20080;-86
2021/06/24 00:28:18;;;;;;;13.93;8.55;;;20.70;56.70;;;;;;4901156;29;20097;-86
2021/06/24 00:30:48;;;;;;;13.27;8.82;;;20.70;56.80;;;;;;4901385;29;20064;-86
2021/06/24 00:33:14;;;;;;;13.27;8.80;;;20.70;57.10;;;;;;4900063;29;20052;-86
2021/06/24 00:35:40;;;;;;;11.93;8.32;;;20.70;57.00;;;;;;4901277;29;20039;-86
2021/06/24 00:38:06;;;;;;;12.75;8.93;;;20.60;56.90;;;;;;4899854;29;20029;-86
2021/06/24 00:40:36;;;;;;;14.68;9.15;;;20.70;57.20;;;;;;4901216;29;20028;-86
2021/06/24 00:43:03;;;;;;;14.00;9.57;;;20.60;57.30;;;;;;4902048;29;20096;-86
2021/06/24 00:45:29;;;;;;;14.57;8.88;;;20.70;57.50;;;;;;4919694;29;20075;-86
2021/06/24 00:47:54;;;;;;;18.15;9.88;;;20.60;57.50;;;;;;4919822;29;20040;-86
2021/06/24 00:50:20;;;;;;;15.00;9.75;;;20.60;57.60;;;;;;4918487;29;20377;-86
2021/06/24 00:52:46;;;;;;;15.63;10.32;;;20.70;57.80;;;;;;4919658;29;20043;-86
2021/06/24 00:55:12;;;;;;;15.90;10.90;;;20.60;57.90;;;;;;4919413;29;20027;-86
2021/06/24 00:57:39;;;;;;;16.75;10.52;;;20.60;58.00;;;;;;4919273;29;20071;-85
2021/06/24 01:00:07;;;;;;;16.00;11.35;;;20.50;58.30;;;;;;4919713;29;20386;-85
2021/06/24 01:02:33;;;;;;;17.00;11.35;;;20.40;58.70;;;;;;4919366;29;20028;-86
2021/06/24 01:04:59;;;;;;;15.82;11.02;;;20.40;59.00;;;;;;4919500;29;20052;-86
2021/06/24 01:07:25;;;;;;;14.77;10.25;;;20.30;58.90;;;;;;4919169;29;20036;-85
2021/06/24 01:09:51;;;;;;;15.43;10.57;;;20.30;58.90;;;;;;4919140;29;20023;-85
2021/06/24 01:12:17;;;;;;;17.35;12.15;;;20.30;59.10;;;;;;4919462;29;20024;-85
2021/06/24 01:14:43;;;;;;;17.48;11.75;;;20.20;59.60;;;;;;4919235;29;20020;-85
2021/06/24 01:17:08;;;;;;;18.27;12.05;;;20.20;59.80;;;;;;4919024;29;20030;-85
2021/06/24 01:19:34;;;;;;;18.90;11.98;;;20.20;59.90;;;;;;4919141;29;20111;-85
2021/06/24 01:22:00;;;;;;;16.95;11.68;;;20.20;60.10;;;;;;4918977;29;20028;-86
2021/06/24 01:24:27;;;;;;;15.23;10.55;;;20.20;60.00;;;;;;4913375;29;20151;-86
2021/06/24 01:26:53;;;;;;;15.25;11.23;;;20.10;60.00;;;;;;4918877;29;20036;-86
2021/06/24 01:29:19;;;;;;;16.52;11.07;;;20.20;60.10;;;;;;4919042;29;20080;-86
2021/06/24 01:31:45;;;;;;;17.40;11.00;;;20.20;60.20;;;;;;4918791;29;20044;-86
2021/06/24 01:34:12;;;;;;;20.40;11.82;;;20.20;60.40;;;;;;4918837;29;20020;-86
2021/06/24 01:36:38;;;;;;;17.92;10.43;;;20.20;60.60;;;;;;4918651;29;20032;-86
2021/06/24 01:39:10;;;;;;;17.45;11.50;;;20.20;60.50;;;;;;4918676;29;20080;-87
2021/06/24 01:41:35;;;;;;;15.75;10.82;;;20.20;60.50;;;;;;4918755;29;20022;-87
2021/06/24 01:44:01;;;;;;;16.20;11.45;;;20.20;60.30;;;;;;4918498;29;20123;-88
2021/06/24 01:46:27;;;;;;;17.98;11.20;;;20.10;60.50;;;;;;4918051;29;20032;-88
2021/06/24 01:48:53;;;;;;;18.50;11.63;;;20.10;60.60;;;;;;4918722;29;20036;-88
2021/06/24 01:51:18;;;;;;;14.85;10.48;;;20.10;60.90;;;;;;4917933;29;20026;-86
2021/06/24 01:53:44;;;;;;;16.10;11.35;;;20.20;60.80;;;;;;4918312;29;20164;-86
2021/06/24 01:56:10;;;;;;;15.18;10.93;;;20.20;60.80;;;;;;4917779;29;20046;-87
2021/06/24 01:58:36;;;;;;;15.00;10.00;;;20.20;60.90;;;;;;4918587;29;20413;-86
2021/06/24 02:01:03;;;;;;;16.70;10.57;;;20.20;60.80;;;;;;4917484;29;20172;-87
2021/06/24 02:03:37;;;;;;;13.75;10.43;;;20.20;60.80;;;;;;4918255;29;20024;-87
2021/06/24 02:06:04;;;;;;;16.65;9.85;;;20.20;61.00;;;;;;4917953;29;20119;-86
2021/06/24 02:08:31;;;;;;;14.23;9.57;;;20.20;61.10;;;;;;4917489;29;20400;-86
2021/06/24 02:10:58;;;;;;;16.10;9.65;;;20.20;61.10;;;;;;4917951;29;20032;-85
2021/06/24 02:13:25;;;;;;;13.35;9.07;;;20.20;61.70;;;;;;4917694;29;20063;-86
2021/06/24 02:15:51;;;;;;;14.60;9.45;;;20.10;61.00;;;;;;4917619;29;20469;-86
2021/06/24 02:18:16;;;;;;;15.95;10.88;;;20.10;61.20;;;;;;4917587;29;20031;-86
2021/06/24 02:20:42;;;;;;;16.60;10.23;;;20.20;61.30;;;;;;4917490;29;20080;-86
2021/06/24 02:23:09;;;;;;;16.80;10.75;;;20.20;61.50;;;;;;4918045;29;20027;-86
2021/06/24 02:25:35;;;;;;;17.83;11.40;;;20.20;61.60;;;;;;4917367;29;20024;-86
2021/06/24 02:28:00;;;;;;;16.05;10.63;;;20.30;61.60;;;;;;4916862;29;20083;-86
2021/06/24 02:30:26;;;;;;;13.77;9.68;;;20.30;61.60;;;;;;4917158;29;20052;-85
2021/06/24 02:32:52;;;;;;;15.45;10.95;;;20.30;61.60;;;;;;4917031;29;20087;-86
2021/06/24 02:35:18;;;;;;;17.52;11.32;;;20.30;61.70;;;;;;4916283;29;20032;-86
2021/06/24 02:37:45;;;;;;;18.77;10.55;;;20.30;62.00;;;;;;4917006;29;20029;-85
2021/06/24 02:40:14;;;;;;;15.77;10.75;;;20.30;61.70;;;;;;4917256;29;20107;-85
2021/06/24 02:42:40;;;;;;;15.95;11.13;;;20.30;62.00;;;;;;4917014;29;20024;-85
2021/06/24 02:45:09;;;;;;;16.88;10.60;;;20.30;62.00;;;;;;4916437;29;20087;-85
2021/06/24 02:47:35;;;;;;;14.75;10.02;;;20.30;62.10;;;;;;4916139;29;20040;-86
2021/06/24 02:50:01;;;;;;;16.58;12.50;;;20.30;61.90;;;;;;4900133;29;20118;-86
2021/06/24 02:52:27;;;;;;;15.52;10.55;;;20.30;62.10;;;;;;4914949;29;20468;-86
2021/06/24 02:54:53;;;;;;;15.98;11.07;;;20.30;62.10;;;;;;4916079;29;20075;-86
2021/06/24 02:57:19;;;;;;;15.35;10.77;;;20.20;62.10;;;;;;4916050;29;20034;-86
2021/06/24 02:59:46;;;;;;;17.95;10.73;;;20.30;62.40;;;;;;4916569;29;20032;-86
2021/06/24 03:02:12;;;;;;;16.02;11.00;;;20.30;62.50;;;;;;4916279;29;20499;-86
2021/06/24 03:04:38;;;;;;;15.70;10.43;;;20.30;62.50;;;;;;4915945;29;20036;-86
2021/06/24 03:07:04;;;;;;;15.95;10.77;;;20.30;62.60;;;;;;4916086;29;20084;-85
2021/06/24 03:09:30;;;;;;;16.08;10.65;;;20.30;62.70;;;;;;4917138;29;20056;-86
2021/06/24 03:11:56;;;;;;;15.80;11.13;;;20.30;62.70;;;;;;4915884;29;20036;-86
2021/06/24 03:14:21;;;;;;;17.13;10.98;;;20.40;62.90;;;;;;4916409;29;20388;-86
2021/06/24 03:16:47;;;;;;;17.98;11.07;;;20.30;62.80;;;;;;4915822;29;20480;-86
2021/06/24 03:19:13;;;;;;;15.93;11.00;;;20.30;62.60;;;;;;4916309;29;20084;-86
2021/06/24 03:21:39;;;;;;;17.33;11.60;;;20.30;62.40;;;;;;4915812;29;20040;-86
2021/06/24 03:24:06;;;;;;;17.42;12.48;;;20.30;62.60;;;;;;4916059;29;20016;-86
2021/06/24 03:26:33;;;;;;;19.77;13.32;;;20.20;62.40;;;;;;4915524;29;20065;-85
2021/06/24 03:28:58;;;;;;;18.92;13.02;;;20.10;62.60;;;;;;4915761;29;20028;-86
2021/06/24 03:31:24;;;;;;;19.40;10.82;;;20.00;62.80;;;;;;4914871;29;20028;-85
2021/06/24 03:33:51;;;;;;;17.38;11.90;;;20.00;62.50;;;;;;4915556;29;20024;-85
2021/06/24 03:36:17;;;;;;;15.07;10.30;;;19.90;62.80;;;;;;4915897;29;20020;-85
2021/06/24 03:38:46;;;;;;;17.13;10.60;;;19.90;62.60;;;;;;4914996;29;20043;-85
2021/06/24 03:41:12;;;;;;;16.10;11.07;;;19.70;62.80;;;;;;4915659;29;20457;-86
2021/06/24 03:43:38;;;;;;;17.90;12.13;;;19.70;63.10;;;;;;4871459;29;1088149;-85
2021/06/24 03:46:04;;;;;;;16.63;11.88;;;19.70;63.30;;;;;;4897827;29;20131;-86
2021/06/24 03:48:30;;;;;;;21.15;13.77;;;19.70;63.60;;;;;;4897867;29;20041;-85
2021/06/24 03:50:55;;;;;;;17.67;12.40;;;19.70;64.00;;;;;;4897741;29;20066;-85
2021/06/24 03:53:21;;;;;;;16.25;10.68;;;19.80;63.60;;;;;;4898250;29;20040;-86
2021/06/24 03:55:46;;;;;;;15.93;10.30;;;19.70;63.40;;;;;;4897906;29;20103;-86
2021/06/24 03:58:14;;;;;;;19.42;12.77;;;19.70;63.30;;;;;;4898414;29;20035;-86
2021/06/24 04:00:43;;;;;;;15.45;11.05;;;19.60;63.90;;;;;;4897716;29;20025;-86
2021/06/24 04:03:13;;;;;;;15.98;11.13;;;19.60;63.90;;;;;;4897897;29;20088;-87
2021/06/24 04:05:39;;;;;;;18.20;13.20;;;19.60;64.10;;;;;;4897899;29;20021;-87
2021/06/24 04:08:07;;;;;;;18.83;13.23;;;19.60;64.20;;;;;;4897388;29;20041;-87
2021/06/24 04:10:33;;;;;;;17.10;11.88;;;19.60;64.40;;;;;;4897440;29;20024;-87
2021/06/24 04:12:59;;;;;;;20.40;14.45;;;19.60;64.60;;;;;;4897753;29;20378;-87
2021/06/24 04:15:29;;;;;;;21.67;13.85;;;19.60;64.70;;;;;;4897580;29;20031;-87
2021/06/24 04:17:55;;;;;;;18.48;13.65;;;19.70;65.00;;;;;;4898018;29;20059;-87
2021/06/24 04:20:22;;;;;;;18.48;13.25;;;19.80;65.10;;;;;;4880164;29;20426;-87
2021/06/24 04:22:48;;;;;;;21.77;15.15;;;19.80;65.10;;;;;;4897567;29;20020;-87
2021/06/24 04:25:16;;;;;;;27.23;19.95;;;19.80;64.90;;;;;;4898480;29;20072;-86
2021/06/24 04:27:42;;;;;;;22.27;15.45;;;19.80;65.30;;;;;;4897408;29;20037;-88
2021/06/24 04:30:09;;;;;;;22.02;15.57;;;19.90;65.30;;;;;;4897354;29;20374;-87
2021/06/24 04:32:36;;;;;;;23.35;15.10;;;19.90;65.40;;;;;;4897703;29;20033;-87
2021/06/24 04:35:01;;;;;;;20.00;14.15;;;20.00;65.50;;;;;;4897959;29;20025;-86
2021/06/24 04:37:27;;;;;;;20.00;14.50;;;20.00;65.40;;;;;;4897606;29;20144;-87
2021/06/24 04:39:52;;;;;;;22.15;16.92;;;20.00;65.50;;;;;;4898858;29;20029;-87
2021/06/24 04:42:18;;;;;;;22.88;16.17;;;20.10;65.70;;;;;;4897322;29;20028;-87
2021/06/24 04:44:44;;;;;;;23.48;14.25;;;20.20;65.90;;;;;;4916954;29;20484;-88
2021/06/24 04:47:09;;;;;;;18.38;13.65;;;20.20;66.00;;;;;;4916155;29;20063;-88
2021/06/24 04:49:35;;;;;;;18.45;14.35;;;20.30;65.90;;;;;;4916134;29;20481;-88
2021/06/24 04:52:01;;;;;;;19.42;13.95;;;20.40;65.90;;;;;;4918604;29;20107;-87
2021/06/24 04:54:27;;;;;;;15.77;10.98;;;20.40;66.00;;;;;;4924455;29;20522;-88
2021/06/24 04:56:52;;;;;;;17.52;12.52;;;20.40;65.70;;;;;;4919263;29;20032;-88
2021/06/24 04:59:18;;;;;;;18.98;13.55;;;20.40;65.70;;;;;;4919426;29;20024;-88
2021/06/24 05:01:44;;;;;;;16.73;12.65;;;20.40;65.50;;;;;;4919927;29;20474;-88
2021/06/24 05:04:09;;;;;;;17.42;12.25;;;20.30;65.60;;;;;;4919580;29;20036;-88
2021/06/24 05:06:35;;;;;;;18.08;13.07;;;20.30;65.80;;;;;;4919463;29;20091;-88
2021/06/24 05:09:02;;;;;;;18.70;11.40;;;20.40;65.90;;;;;;4919655;29;20024;-90
2021/06/24 05:11:30;;;;;;;16.23;11.88;;;20.40;66.00;;;;;;4918532;29;20436;-86
2021/06/24 05:13:55;;;;;;;15.18;10.32;;;20.40;65.90;;;;;;4921942;29;20067;-86
2021/06/24 05:16:21;;;;;;;14.57;9.35;;;20.40;66.00;;;;;;4919215;29;20544;-91
2021/06/24 05:18:47;;;;;;;14.13;9.38;;;20.40;66.20;;;;;;4927823;29;20035;-88
2021/06/24 05:21:12;;;;;;;13.63;9.20;;;20.50;66.10;;;;;;4919464;29;20032;-88
2021/06/24 05:23:38;;;;;;;12.65;7.82;;;20.50;66.10;;;;;;4919476;29;20047;-89
2021/06/24 05:26:04;;;;;;;11.82;7.30;;;20.60;65.90;;;;;;4917624;29;20024;-88
2021/06/24 05:28:31;;;;;;;12.60;7.45;;;20.50;65.90;;;;;;4919411;29;20476;-87
2021/06/24 05:30:57;;;;;;;12.10;7.40;;;20.60;66.60;;;;;;4919712;29;20028;-89
2021/06/24 05:33:22;;;;;;;11.02;6.57;;;20.70;66.90;;;;;;4922532;29;20083;-88
2021/06/24 05:35:49;;;;;;;10.65;6.63;;;20.90;67.10;;;;;;4924494;29;20484;-87
2021/06/24 05:38:16;;;;;;;13.15;6.50;;;21.00;66.90;;;;;;4927776;29;20039;-87
2021/06/24 05:40:44;;;;;;;9.32;5.50;;;21.10;66.70;;;;;;4926546;29;20031;-87
2021/06/24 05:43:10;;;;;;;10.00;5.75;;;21.10;66.70;;;;;;4914158;29;20044;-87
2021/06/24 05:45:35;;;;;;;9.85;5.88;;;21.20;67.00;;;;;;4922222;29;20032;-88
2021/06/24 05:48:01;;;;;;;9.30;5.50;;;21.40;67.60;;;;;;4928338;29;20384;-87
2021/06/24 05:50:27;;;;;;;9.32;5.38;;;21.60;67.50;;;;;;4926393;29;20016;-89
2021/06/24 05:52:54;;;;;;;9.63;4.97;;;21.70;66.90;;;;;;4918493;29;20036;-87
2021/06/24 05:55:20;;;;;;;8.68;4.85;;;21.80;66.70;;;;;;4927018;29;20016;-87
2021/06/24 05:57:46;;;;;;;9.95;5.07;;;21.90;66.90;;;;;;4923829;29;20493;-86
2021/06/24 06:00:13;;;;;;;8.73;5.05;;;22.00;67.40;;;;;;4918440;29;20124;-85
2021/06/24 06:02:40;;;;;;;8.63;4.53;;;22.10;67.30;;;;;;4917497;29;20115;-86
2021/06/24 06:05:11;;;;;;;11.15;5.15;;;22.10;66.10;;;;;;4917655;29;20021;-88
2021/06/24 06:07:36;;;;;;;8.85;4.95;;;22.20;66.60;;;;;;4914321;29;20040;-85
2021/06/24 06:10:03;;;;;;;8.48;4.90;;;22.10;66.20;;;;;;4917841;29;20503;-84
2021/06/24 06:12:28;;;;;;;9.50;5.43;;;22.10;66.20;;;;;;4917852;29;20028;-84
2021/06/24 06:14:54;;;;;;;13.00;5.88;;;22.10;65.90;;;;;;4917721;29;20439;-83
2021/06/24 06:17:20;;;;;;;9.00;5.25;;;22.00;65.70;;;;;;4918054;29;20020;-84
2021/06/24 06:19:45;;;;;;;9.55;5.78;;;22.00;66.50;;;;;;4917589;29;20058;-86
2021/06/24 06:22:11;;;;;;;9.50;5.57;;;21.90;66.00;;;;;;4917421;29;20028;-85
2021/06/24 06:24:39;;;;;;;8.90;5.35;;;21.90;65.90;;;;;;4917449;29;20079;-85
2021/06/24 06:27:07;;;;;;;9.43;5.63;;;21.90;66.30;;;;;;4917648;29;20040;-85
2021/06/24 06:29:34;;;;;;;9.90;5.55;;;22.00;66.60;;;;;;4919777;29;20035;-86
2021/06/24 06:32:00;;;;;;;9.80;6.07;;;22.00;66.30;;;;;;4917425;29;20114;-84
2021/06/24 06:34:26;;;;;;;9.60;5.93;;;22.10;66.30;;;;;;4917333;29;20051;-84
2021/06/24 06:36:51;;;;;;;9.65;5.55;;;22.30;66.80;;;;;;4917937;29;20064;-86
2021/06/24 06:39:17;;;;;;;11.20;6.68;;;22.40;67.00;;;;;;4917755;29;20032;-83
2021/06/24 06:41:42;;;;;;;10.50;6.68;;;22.60;67.40;;;;;;4917449;29;20040;-83
2021/06/24 06:44:08;;;;;;;9.85;6.25;;;22.80;67.20;;;;;;4905565;29;20523;-83
2021/06/24 06:46:34;;;;;;;9.55;5.78;;;23.00;67.60;;;;;;4898562;29;20033;-83
2021/06/24 06:49:00;;;;;;;10.00;5.95;;;23.20;67.60;;;;;;4898771;29;20104;-83
2021/06/24 06:51:26;;;;;;;9.95;6.05;;;23.40;67.60;;;;;;4898700;29;20478;-84
2021/06/24 06:53:51;;;;;;;9.48;5.75;;;23.70;67.40;;;;;;4898554;29;20127;-85
2021/06/24 06:56:17;;;;;;;10.32;5.85;;;23.70;66.40;;;;;;4898593;29;20477;-86
2021/06/24 06:58:43;;;;;;;11.15;6.43;;;23.70;66.00;;;;;;4898703;29;20056;-86
2021/06/24 07:01:09;;;;;;;10.27;5.50;;;23.70;65.70;;;;;;4898727;29;20480;-86
2021/06/24 07:03:34;;;;;;;8.95;5.38;;;23.60;65.80;;;;;;4883132;29;20038;-85
2021/06/24 07:06:00;;;;;;;10.73;6.28;;;23.60;65.60;;;;;;4899394;29;20021;-86
2021/06/24 07:08:26;;;;;;;10.63;6.60;;;23.60;65.80;;;;;;4898118;29;20065;-84
2021/06/24 07:10:51;;;;;;;10.40;6.40;;;23.50;65.50;;;;;;4898444;29;20031;-84
2021/06/24 07:13:17;;;;;;;10.60;6.32;;;23.50;65.60;;;;;;4898300;29;20043;-85
2021/06/24 07:15:42;;;;;;;10.57;6.43;;;23.50;65.80;;;;;;4897941;29;20020;-84
2021/06/24 07:18:11;;;;;;;9.70;5.85;;;23.50;66.10;;;;;;4898631;29;20084;-84
2021/06/24 07:20:38;;;;;;;10.55;6.25;;;23.60;66.00;;;;;;4898068;29;20060;-86
2021/06/24 07:23:04;;;;;;;11.95;6.05;;;23.70;66.30;;;;;;4898440;29;20037;-84
2021/06/24 07:25:29;;;;;;;9.40;6.03;;;23.80;65.90;;;;;;4904797;29;20053;-87
2021/06/24 07:27:55;;;;;;;10.45;6.07;;;23.90;65.40;;;;;;4897972;29;20464;-86
2021/06/24 07:30:21;;;;;;;11.52;6.28;;;23.90;65.60;;;;;;4898135;29;20025;-84
2021/06/24 07:32:46;;;;;;;11.82;6.00;;;23.80;65.50;;;;;;4893970;29;20505;-86
2021/06/24 07:35:12;;;;;;;9.55;5.80;;;23.80;65.30;;;;;;4897919;29;20029;-84
2021/06/24 07:37:38;;;;;;;11.27;6.50;;;23.80;64.90;;;;;;4898055;29;20028;-84
2021/06/24 07:40:06;;;;;;;10.80;6.43;;;23.60;64.30;;;;;;4897534;29;20523;-84
2021/06/24 07:42:31;;;;;;;9.75;6.00;;;23.50;64.50;;;;;;4897755;29;20040;-86
2021/06/24 07:44:57;;;;;;;10.32;6.30;;;23.50;65.10;;;;;;4919458;29;20041;-85
2021/06/24 07:47:22;;;;;;;9.40;5.65;;;23.50;65.30;;;;;;4919458;29;20173;-84
2021/06/24 07:49:48;;;;;;;10.27;6.13;;;23.60;65.10;;;;;;4918819;29;20051;-84
2021/06/24 07:52:14;;;;;;;10.43;6.07;;;23.50;64.70;;;;;;4916745;29;20028;-83
2021/06/24 07:54:40;;;;;;;10.57;6.60;;;23.40;64.40;;;;;;4913444;29;20143;-85
2021/06/24 07:57:06;;;;;;;10.90;6.03;;;23.10;63.80;;;;;;4916446;29;20563;-85
2021/06/24 07:59:31;;;;;;;11.18;6.45;;;23.10;64.30;;;;;;4917281;29;20024;-85
2021/06/24 08:01:57;;;;;;;10.57;5.93;;;23.00;64.80;;;;;;4916471;29;20030;-84
2021/06/24 08:04:23;;;;;;;11.48;6.40;;;23.00;64.90;;;;;;4919431;29;20055;-85
2021/06/24 08:06:48;;;;;;;10.52;6.18;;;23.00;65.70;;;;;;4915068;29;20039;-86
2021/06/24 08:09:15;;;;;;;8.60;4.65;;;23.20;66.40;;;;;;4916946;29;20028;-87
2021/06/24 08:11:41;;;;;;;10.18;5.53;;;23.40;66.10;;;;;;4915657;29;20421;-85
2021/06/24 08:14:07;;;;;;;8.95;5.30;;;23.60;66.30;;;;;;4917321;29;20128;-86
2021/06/24 08:16:33;;;;;;;9.00;5.18;;;23.80;66.50;;;;;;4919552;29;20488;-85
2021/06/24 08:18:58;;;;;;;8.98;4.75;;;24.10;66.60;;;;;;4922301;29;20088;-86
2021/06/24 08:21:24;;;;;;;10.25;5.55;;;24.40;66.50;;;;;;4916577;29;20654;-86
2021/06/24 08:23:50;;;;;;;9.75;5.70;;;24.60;66.10;;;;;;4899860;29;20119;-87
2021/06/24 08:26:15;;;;;;;10.15;5.90;;;24.80;65.90;;;;;;4919931;29;20036;-88
2021/06/24 08:28:41;;;;;;;9.63;5.95;;;24.90;65.80;;;;;;4920683;29;20032;-87
2021/06/24 08:31:07;;;;;;;9.82;5.70;;;25.00;64.50;;;;;;4920397;29;20055;-92
2021/06/24 08:33:33;;;;;;;8.90;4.90;;;25.10;64.70;;;;;;4919677;29;20051;-87
2021/06/24 08:35:59;;;;;;;10.13;5.63;;;24.90;64.50;;;;;;4919913;29;20103;-84
2021/06/24 08:38:24;;;;;;;10.65;6.15;;;25.00;64.60;;;;;;4919684;29;20475;-87
2021/06/24 08:40:50;;;;;;;10.82;6.57;;;25.10;65.10;;;;;;4920964;29;20026;-83
2021/06/24 08:43:16;;;;;;;9.35;4.72;;;25.10;64.90;;;;;;4915637;29;20048;-83
2021/06/24 08:45:42;;;;;;;9.68;5.40;;;25.20;64.80;;;;;;4905419;29;20481;-84
2021/06/24 08:48:13;;;;;;;9.65;5.03;;;25.40;65.10;;;;;;4903053;29;20029;-84
2021/06/24 08:50:50;;;;;;;9.30;4.93;;;25.50;65.00;;;;;;4901037;29;20025;-84
2021/06/24 08:53:20;;;;;;;9.68;5.28;;;25.70;65.00;;;;;;4903041;29;20020;-84
2021/06/24 08:55:51;;;;;;;8.25;4.60;;;25.90;65.30;;;;;;4900706;29;20041;-84
2021/06/24 08:58:16;;;;;;;9.40;4.50;;;26.20;65.70;;;;;;4900845;29;20028;-84
2021/06/24 09:00:42;;;;;;;7.85;4.00;;;26.50;65.90;;;;;;4900730;29;20025;-84
2021/06/24 09:03:19;;;;;;;9.73;4.50;;;26.70;64.70;;;;;;4900453;29;20016;-84
2021/06/24 09:05:59;;;;;;;8.05;4.28;;;26.70;63.80;;;;;;4905345;29;20051;-85
2021/06/24 09:08:33;;;;;;;10.05;5.18;;;26.70;64.50;;;;;;4903775;29;20033;-87
2021/06/24 09:11:22;;;;;;;8.30;4.68;;;26.80;63.40;;;;;;4900246;29;20037;-86
2021/06/24 09:14:11;;;;;;;8.52;4.65;;;26.70;63.20;;;;;;4900635;29;20047;-87
2021/06/24 09:16:42;;;;;;;9.10;4.28;;;26.60;62.60;;;;;;4901480;29;20063;-84
2021/06/24 09:19:23;;;;;;;8.75;4.28;;;26.60;63.40;;;;;;4900989;29;20020;-84
2021/06/24 09:21:56;;;;;;;8.40;4.25;;;26.70;63.50;;;;;;4904533;29;20438;-85
2021/06/24 09:24:38;;;;;;;9.30;4.30;;;26.90;63.10;;;;;;4901802;29;20522;-85
2021/06/24 09:27:26;;;;;;;8.52;4.35;;;26.90;63.30;;;;;;4904126;29;20060;-84
2021/06/24 09:30:10;;;;;;;9.50;4.93;;;27.00;62.70;;;;;;4899522;29;20417;-85
2021/06/24 09:32:40;;;;;;;7.93;4.35;;;26.90;61.80;;;;;;4899207;29;20031;-86
2021/06/24 09:35:20;;;;;;;7.93;4.03;;;26.90;63.00;;;;;;4900016;29;20064;-85
2021/06/24 09:38:08;;;;;;;8.32;4.55;;;27.00;62.30;;;;;;4898699;29;20477;-85
2021/06/24 09:40:55;;;;;;;9.15;4.95;;;26.90;61.60;;;;;;4899914;29;20032;-84
2021/06/24 09:43:31;;;;;;;8.90;4.47;;;26.90;61.20;;;;;;4904974;29;20496;-84
2021/06/24 09:46:15;;;;;;;10.18;4.93;;;26.80;61.50;;;;;;4919446;29;20056;-85
2021/06/24 09:48:47;;;;;;;8.77;5.10;;;26.70;60.80;;;;;;4918669;29;20028;-86
2021/06/24 09:51:21;;;;;;;8.50;4.53;;;26.80;62.50;;;;;;4918704;29;20031;-86
2021/06/24 09:54:00;;;;;;;9.20;4.68;;;27.10;63.00;;;;;;4918504;29;20031;-86
2021/06/24 09:56:36;;;;;;;8.02;4.50;;;27.50;62.80;;;;;;4918337;29;20020;-86
2021/06/24 09:59:05;;;;;;;8.90;4.72;;;27.60;61.90;;;;;;4918734;29;20397;-86
2021/06/24 10:01:42;;;;;;;8.75;4.20;;;27.70;60.50;;;;;;4918587;29;20059;-86
2021/06/24 10:04:23;;;;;;;7.57;3.95;;;27.40;60.10;;;;;;4917539;29;20068;-85
2021/06/24 10:06:54;;;;;;;8.40;4.80;;;27.40;61.10;;;;;;4918608;29;20079;-86
2021/06/24 10:09:20;;;;;;;8.15;4.20;;;27.60;61.00;;;;;;4918199;29;20030;-86
2021/06/24 10:11:47;;;;;;;7.93;4.35;;;27.60;61.30;;;;;;4918214;29;20066;-86
2021/06/24 10:14:16;;;;;;;7.90;3.70;;;27.80;60.90;;;;;;4918621;29;20480;-84
2021/06/24 10:16:49;;;;;;;7.32;3.88;;;27.80;61.00;;;;;;4918262;29;20043;-85
2021/06/24 10:19:17;;;;;;;9.38;4.18;;;27.80;60.20;;;;;;4918019;29;20024;-86
2021/06/24 10:21:47;;;;;;;7.47;3.97;;;27.90;60.90;;;;;;4918071;29;20024;-86
2021/06/24 10:24:16;;;;;;;7.28;3.70;;;28.00;61.60;;;;;;4918085;29;20115;-86
2021/06/24 10:26:44;;;;;;;8.05;4.30;;;28.40;62.00;;;;;;4917915;29;20040;-86
2021/06/24 10:29:18;;;;;;;8.02;4.03;;;28.60;60.90;;;;;;4917845;29;20020;-87
2021/06/24 10:31:48;;;;;;;7.72;4.03;;;28.80;61.40;;;;;;4917617;29;20058;-87
2021/06/24 10:34:14;;;;;;;7.40;3.70;;;29.30;62.10;;;;;;4913947;29;20548;-86
2021/06/24 10:37:00;;;;;;;7.28;4.10;;;29.70;61.80;;;;;;4917744;29;20119;-88
2021/06/24 10:39:34;;;;;;;7.03;3.60;;;30.00;61.20;;;;;;4917644;29;20027;-87
2021/06/24 10:42:00;;;;;;;6.97;3.80;;;30.10;59.50;;;;;;4917758;29;20035;-87
2021/06/24 10:44:47;;;;;;;7.22;4.07;;;30.00;58.80;;;;;;4903670;29;20646;-87
2021/06/24 10:47:14;;;;;;;7.28;3.70;;;29.70;58.40;;;;;;4896914;29;20041;-87
2021/06/24 10:49:39;;;;;;;7.65;3.97;;;29.50;58.10;;;;;;4897923;29;20103;-87
2021/06/24 10:52:35;;;;;;;7.15;3.60;;;29.40;58.00;;;;;;4898880;29;20124;-86
2021/06/24 10:55:01;;;;;;;6.55;3.50;;;29.10;56.90;;;;;;4882504;29;20037;-86
2021/06/24 10:57:36;;;;;;;6.38;3.28;;;28.80;57.20;;;;;;4898620;29;20119;-85
2021/06/24 11:00:36;;;;;;;7.70;3.75;;;28.80;57.70;;;;;;4895598;29;20067;-86
2021/06/24 11:03:08;;;;;;;7.22;3.83;;;28.70;57.70;;;;;;4897686;29;20020;-87
2021/06/24 11:05:35;;;;;;;5.80;3.38;;;28.80;58.30;;;;;;4901887;29;20362;-86
2021/06/24 11:08:12;;;;;;;6.90;3.47;;;29.10;58.90;;;;;;4898025;29;20053;-87
2021/06/24 11:10:58;;;;;;;7.38;4.00;;;29.30;58.10;;;;;;4898006;29;20389;-86
2021/06/24 11:13:36;;;;;;;7.15;3.70;;;29.30;57.40;;;;;;4898662;29;20093;-86
2021/06/24 11:16:16;;;;;;;5.97;3.10;;;29.60;58.90;;;;;;4898438;29;20031;-87
2021/06/24 11:18:47;;;;;;;5.35;3.00;;;30.00;59.10;;;;;;4898249;29;20429;-87
2021/06/24 11:21:13;;;;;;;7.18;3.63;;;30.40;57.80;;;;;;4898174;29;20031;-87
2021/06/24 11:23:54;;;;;;;6.25;3.45;;;30.20;56.20;;;;;;4898210;29;20021;-88
2021/06/24 11:26:30;;;;;;;7.32;3.30;;;30.40;58.40;;;;;;4897960;29;20030;-88
2021/06/24 11:29:27;;;;;;;5.15;2.88;;;31.10;59.50;;;;;;4898113;29;20465;-87
2021/06/24 11:34:43;;;;;;;5.63;3.13;;;31.10;54.50;;;;;;4895530;29;20111;-87
2021/06/24 11:37:20;;;;;;;8.00;3.40;;;31.00;56.30;;;;;;4898088;29;20021;-87
2021/06/24 11:39:49;;;;;;;4.60;2.72;;;32.00;62.00;;;;;;4897834;29;20037;-87
2021/06/24 11:42:29;;;;;;;4.95;2.67;;;32.40;57.30;;;;;;4897852;29;20029;-87
2021/06/24 11:44:56;;;;;;;5.50;3.10;;;32.70;55.90;;;;;;4914991;29;20063;-87
2021/06/24 11:47:28;;;;;;;4.65;2.67;;;33.00;58.90;;;;;;4916517;29;20047;-87
2021/06/24 12:04:13;;;;;;;4.35;2.67;;;35.80;58.50;;;;;;4922050;29;20086;-89
2021/06/24 12:06:42;;;;;;;4.95;2.78;;;36.90;59.40;;;;;;4918999;29;20028;-89
2021/06/24 12:09:08;;;;;;;3.55;2.35;;;38.10;59.10;;;;;;4920363;29;20039;-87
2021/06/24 12:11:35;;;;;;;5.72;2.38;;;39.00;58.50;;;;;;4920506;29;20020;-88
2021/06/24 12:14:15;;;;;;;3.00;2.40;;;39.40;54.80;;;;;;4920171;29;20051;-86
2021/06/24 12:16:40;;;;;;;4.10;2.38;;;39.00;55.70;;;;;;4920173;29;20033;-88
2021/06/24 12:19:06;;;;;;;3.00;1.90;;;39.00;52.50;;;;;;4920517;29;20488;-85
2021/06/24 12:21:31;;;;;;;2.70;2.08;;;38.30;51.70;;;;;;4919846;29;20028;-85
2021/06/24 12:23:57;;;;;;;3.70;2.30;;;38.10;53.00;;;;;;4920166;29;20024;-84
2021/06/24 12:26:23;;;;;;;3.72;2.28;;;37.80;50.30;;;;;;4920098;29;20066;-85
2021/06/24 12:28:48;;;;;;;2.30;1.88;;;37.00;48.90;;;;;;4920221;29;20040;-85
2021/06/24 12:31:24;;;;;;;3.75;2.00;;;36.60;49.80;;;;;;4920330;29;20025;-85
2021/06/24 12:33:52;;;;;;;3.85;1.98;;;36.00;48.10;;;;;;4917060;29;20032;-85
2021/06/24 12:36:34;;;;;;;2.33;1.90;;;35.20;47.40;;;;;;4919821;29;20028;-87
2021/06/24 12:39:00;;;;;;;3.83;2.25;;;34.50;47.90;;;;;;4920036;29;20181;-85
2021/06/24 12:41:28;;;;;;;2.85;2.00;;;34.30;48.90;;;;;;4919722;29;20044;-87
2021/06/24 12:44:02;;;;;;;2.33;1.90;;;34.20;48.00;;;;;;4918292;29;20514;-88
2021/06/24 12:46:33;;;;;;;2.35;1.77;;;33.90;47.40;;;;;;4919196;29;20040;-85
2021/06/24 12:49:13;;;;;;;2.53;2.00;;;33.70;47.80;;;;;;4919419;29;20079;-88
2021/06/24 12:51:39;;;;;;;3.22;1.98;;;33.90;48.30;;;;;;4918020;29;20540;-90
2021/06/24 12:54:15;;;;;;;2.33;1.90;;;33.90;48.20;;;;;;4919189;29;20103;-88
2021/06/24 12:56:43;;;;;;;3.63;1.92;;;34.10;47.30;;;;;;4919019;29;20477;-89
2021/06/24 12:59:12;;;;;;;2.33;1.80;;;33.90;46.60;;;;;;4917320;29;20035;-88
2021/06/24 13:01:39;;;;;;;2.65;1.88;;;33.70;46.40;;;;;;4916079;29;20118;-88